Time;durP1;ratioP1;P1;durP2;ratioP2;P2;SDS_P1;SDS_P2;PMS_P1;PMS_P2;Temp;Humidity;BMP_temperature;BMP_pressure;BME280_temperature;BME280_humidity;BME280_pressure;Samples;Min_cycle;Max_cycle;Signal;HPM_P1;HPM_P2
2022/06/13 00:00:54;;;;;;;9.57;5.75;;;23.00;51.90;;;;;;2371365;53;21045;-72
2022/06/13 00:03:21;;;;;;;8.57;5.47;;;23.00;52.10;;;;;;2581353;52;21415;-72
2022/06/13 00:05:47;;;;;;;8.63;5.45;;;23.00;52.40;;;;;;2367485;53;20977;-72
2022/06/13 00:08:13;;;;;;;8.02;4.95;;;23.00;52.50;;;;;;2431600;52;21008;-72
2022/06/13 00:10:46;;;;;;;6.93;4.22;;;22.90;52.40;;;;;;2363153;53;21093;-72
2022/06/13 00:13:12;;;;;;;;;;;22.90;52.70;;;;;;2370587;53;20982;-72
2022/06/13 00:15:41;;;;;;;6.65;3.45;;;22.90;52.70;;;;;;2366629;53;20113;-72
2022/06/13 00:18:07;;;;;;;5.53;3.28;;;22.90;52.00;;;;;;2369648;53;21516;-72
2022/06/13 00:20:34;;;;;;;6.00;3.40;;;22.90;52.20;;;;;;2375162;53;21616;-72
2022/06/13 00:23:00;;;;;;;7.47;3.40;;;22.80;52.30;;;;;;2387298;53;20934;-73
2022/06/13 00:25:26;;;;;;;5.62;3.20;;;22.80;52.40;;;;;;2365851;53;20992;-73
2022/06/13 00:27:53;;;;;;;5.10;3.05;;;22.70;52.50;;;;;;2353315;54;20993;-73
2022/06/13 00:30:19;;;;;;;4.90;3.30;;;22.70;52.60;;;;;;2378861;53;20934;-73
2022/06/13 00:32:46;;;;;;;5.50;3.20;;;22.70;52.70;;;;;;2370914;53;20935;-73
2022/06/13 00:35:12;;;;;;;4.32;2.60;;;22.60;52.70;;;;;;2558329;52;20950;-73
2022/06/13 00:37:38;;;;;;;5.30;2.85;;;22.60;52.70;;;;;;2371073;53;20974;-72
2022/06/13 00:40:06;;;;;;;4.60;2.33;;;22.60;52.90;;;;;;2369372;53;21000;-72
2022/06/13 00:42:33;;;;;;;3.67;2.05;;;22.50;52.80;;;;;;2368960;53;21490;-73
2022/06/13 00:45:15;;;;;;;4.22;2.15;;;22.50;52.80;;;;;;2371656;53;21069;-73
2022/06/13 00:47:43;;;;;;;4.80;2.25;;;22.40;53.10;;;;;;2367601;53;20919;-73
2022/06/13 00:50:13;;;;;;;3.90;2.05;;;22.40;52.80;;;;;;2368825;53;20918;-73
2022/06/13 00:52:48;;;;;;;3.87;1.98;;;22.40;53.00;;;;;;2372346;53;21019;-73
2022/06/13 00:55:17;;;;;;;3.83;1.95;;;22.30;53.00;;;;;;2371777;53;21439;-73
2022/06/13 00:57:43;;;;;;;3.97;2.00;;;22.30;53.10;;;;;;2370903;53;20891;-73
2022/06/13 01:00:11;;;;;;;4.62;1.98;;;22.20;53.10;;;;;;2371669;53;20930;-72
2022/06/13 01:02:42;;;;;;;4.57;1.98;;;22.20;53.30;;;;;;2371010;53;20919;-74
2022/06/13 01:05:09;;;;;;;3.83;1.83;;;22.20;53.60;;;;;;2371810;53;21010;-72
2022/06/13 01:07:36;;;;;;;3.50;1.70;;;22.10;53.40;;;;;;2465247;52;21439;-73
2022/06/13 01:12:48;;;;;;;2.97;1.50;;;22.10;53.40;;;;;;2387919;52;20998;-73
2022/06/13 01:15:37;;;;;;;2.78;1.35;;;22.00;53.40;;;;;;2370948;53;20918;-73
2022/06/13 01:19:51;;;;;;;2.80;1.25;;;22.00;53.60;;;;;;2373462;53;21065;-74
2022/06/13 01:29:24;;;;;;;3.47;1.40;;;21.90;53.80;;;;;;2373852;53;20993;-73
2022/06/13 01:38:45;;;;;;;2.17;1.00;;;21.80;53.00;;;;;;2472077;52;2754206;-73
2022/06/13 01:41:30;;;;;;;2.45;0.93;;;21.80;52.90;;;;;;2370145;53;20949;-73
2022/06/13 01:47:09;;;;;;;2.28;0.98;;;21.60;53.00;;;;;;2497042;52;20969;-74
2022/06/13 01:50:00;;;;;;;2.67;1.00;;;21.50;53.20;;;;;;2369250;53;20954;-73
2022/06/13 01:55:13;;;;;;;2.58;0.98;;;21.40;52.90;;;;;;2361566;53;21116;-73
2022/06/13 01:57:42;;;;;;;1.98;0.77;;;21.40;53.30;;;;;;2410410;52;20894;-73
2022/06/13 02:00:52;;;;;;;2.55;0.85;;;21.30;52.90;;;;;;2371083;53;21464;-73
2022/06/13 02:03:27;;;;;;;2.72;1.20;;;21.30;53.80;;;;;;2373268;53;20934;-72
2022/06/13 02:06:16;;;;;;;2.75;0.70;;;21.20;53.40;;;;;;2370351;53;20914;-73
2022/06/13 02:11:53;;;;;;;2.22;0.90;;;21.20;54.10;;;;;;2346457;53;20936;-74
2022/06/13 02:14:54;;;;;;;2.22;0.80;;;21.20;53.50;;;;;;2343082;53;21323;-72
2022/06/13 02:17:23;;;;;;;2.30;1.00;;;21.10;54.10;;;;;;2330324;53;21092;-73
2022/06/13 02:19:56;;;;;;;4.03;0.90;;;21.10;53.40;;;;;;2343293;54;21915;-73
2022/06/13 02:22:39;;;;;;;2.47;1.10;;;21.00;53.90;;;;;;2344892;54;20968;-73
2022/06/13 02:25:28;;;;;;;2.90;1.20;;;21.00;54.50;;;;;;2447941;52;20949;-73
2022/06/13 02:28:05;;;;;;;2.70;1.12;;;20.90;54.10;;;;;;2432068;52;20917;-73
2022/06/13 02:30:39;;;;;;;2.35;1.00;;;20.90;54.30;;;;;;2343249;53;20925;-73
2022/06/13 02:33:14;;;;;;;2.95;1.02;;;20.90;54.30;;;;;;2344799;53;20961;-72
2022/06/13 02:35:51;;;;;;;3.00;1.50;;;20.80;54.40;;;;;;2371672;53;20991;-73
2022/06/13 02:38:25;;;;;;;1.98;0.93;;;20.90;54.70;;;;;;2371267;53;21002;-73
2022/06/13 02:40:55;;;;;;;2.05;0.93;;;20.80;54.60;;;;;;2352373;53;20968;-73
2022/06/13 02:43:33;;;;;;;3.28;0.80;;;20.80;54.50;;;;;;2372233;53;22416;-72
2022/06/13 02:46:01;;;;;;;2.75;0.77;;;20.80;54.70;;;;;;2372043;53;21026;-73
2022/06/13 02:48:44;;;;;;;2.95;1.10;;;20.80;54.50;;;;;;2624458;52;21111;-73
2022/06/13 02:53:02;;;;;;;3.33;1.20;;;20.80;55.00;;;;;;2469263;52;20939;-73
2022/06/13 02:55:32;;;;;;;2.28;0.80;;;20.80;55.40;;;;;;2437878;52;20951;-73
2022/06/13 02:58:34;;;;;;;2.17;1.08;;;20.80;54.50;;;;;;2353038;52;21456;-73
2022/06/13 03:01:18;;;;;;;2.72;1.00;;;20.80;55.10;;;;;;2337185;54;20977;-73
2022/06/13 03:03:57;;;;;;;1.90;0.90;;;20.80;55.10;;;;;;2344405;53;20936;-73
2022/06/13 03:06:38;;;;;;;2.50;0.98;;;20.80;55.00;;;;;;2359373;53;21028;-73
2022/06/13 03:09:08;;;;;;;1.95;0.90;;;20.80;55.10;;;;;;2355724;53;20954;-73
2022/06/13 03:12:01;;;;;;;3.47;0.90;;;20.70;54.80;;;;;;2371931;53;20931;-73
2022/06/13 03:15:01;;;;;;;1.87;0.90;;;20.80;55.50;;;;;;2448617;52;21005;-72
2022/06/13 03:18:32;;;;;;;2.15;0.90;;;20.70;55.40;;;;;;2371572;53;20938;-73
2022/06/13 03:21:09;;;;;;;3.62;0.80;;;20.70;55.10;;;;;;2370780;53;20934;-73
2022/06/13 03:23:53;;;;;;;2.10;0.82;;;20.70;55.30;;;;;;2371447;53;20926;-73
2022/06/13 03:26:25;;;;;;;1.80;0.80;;;20.80;55.50;;;;;;2371359;53;21005;-72
2022/06/13 03:29:02;;;;;;;3.17;0.80;;;20.70;55.10;;;;;;2591887;52;20974;-72
2022/06/13 03:31:33;;;;;;;2.55;1.00;;;20.70;55.30;;;;;;2444323;52;20919;-72
2022/06/13 03:34:02;;;;;;;1.95;0.85;;;20.70;55.20;;;;;;2373076;52;20926;-73
2022/06/13 03:36:36;;;;;;;2.12;1.00;;;20.70;55.20;;;;;;2371877;53;21298;-73
2022/06/13 03:39:24;;;;;;;2.17;0.90;;;20.70;55.80;;;;;;2372545;53;21026;-73
2022/06/13 03:41:58;;;;;;;2.83;1.00;;;20.70;55.80;;;;;;2371217;53;20930;-72
2022/06/13 03:44:49;;;;;;;3.22;1.30;;;20.70;55.40;;;;;;2370929;53;20958;-73
2022/06/13 03:47:18;;;;;;;2.37;1.00;;;20.70;55.60;;;;;;2468626;52;20946;-72
2022/06/13 03:50:42;;;;;;;2.65;0.95;;;20.70;55.50;;;;;;2367933;53;21011;-72
2022/06/13 03:53:15;;;;;;;1.70;0.80;;;20.70;55.80;;;;;;2453405;52;21337;-72
2022/06/13 03:56:03;;;;;;;3.60;1.10;;;20.70;55.60;;;;;;2368414;53;20903;-73
2022/06/13 03:58:55;;;;;;;2.25;0.90;;;20.70;55.40;;;;;;2371980;53;21777;-73
2022/06/13 04:01:26;;;;;;;3.10;0.93;;;20.70;56.00;;;;;;2354576;53;21498;-73
2022/06/13 04:03:55;;;;;;;1.65;0.73;;;20.70;55.40;;;;;;2349726;53;21876;-72
2022/06/13 04:06:38;;;;;;;2.72;0.90;;;20.70;55.50;;;;;;2402923;53;20973;-72
2022/06/13 04:09:15;;;;;;;2.83;0.82;;;20.70;55.80;;;;;;2350372;53;20958;-73
2022/06/13 04:12:19;;;;;;;3.75;0.98;;;20.70;55.40;;;;;;2369672;53;20942;-72
2022/06/13 04:15:43;;;;;;;2.22;0.80;;;20.70;55.70;;;;;;2394013;52;21030;-73
2022/06/13 04:18:53;;;;;;;1.65;0.65;;;20.70;55.80;;;;;;2371936;53;21783;-72
2022/06/13 04:22:12;;;;;;;1.83;0.70;;;20.70;55.60;;;;;;2371676;53;20914;-72
2022/06/13 04:24:59;;;;;;;2.10;0.80;;;20.60;55.20;;;;;;2371701;53;21002;-73
2022/06/13 04:27:46;;;;;;;1.60;0.70;;;20.60;55.20;;;;;;2403751;52;21485;-73
2022/06/13 04:30:23;;;;;;;1.83;0.60;;;20.50;55.30;;;;;;2592361;52;20918;-72
2022/06/13 04:33:25;;;;;;;2.08;0.80;;;20.50;55.20;;;;;;2445160;52;21006;-73
2022/06/13 04:35:52;;;;;;;2.10;0.80;;;20.40;55.20;;;;;;2371199;53;21608;-72
2022/06/13 04:38:19;;;;;;;2.62;0.80;;;20.40;54.90;;;;;;2371397;53;20998;-73
2022/06/13 04:40:50;;;;;;;4.62;0.88;;;20.40;55.00;;;;;;2579175;53;21001;-72
2022/06/13 04:43:17;;;;;;;2.67;0.62;;;20.30;54.90;;;;;;2342324;53;20958;-72
2022/06/13 04:46:11;;;;;;;2.20;0.90;;;20.30;54.90;;;;;;2343527;53;20919;-72
2022/06/13 04:48:41;;;;;;;2.00;0.70;;;20.30;55.10;;;;;;2342950;53;21438;-72
2022/06/13 04:51:10;;;;;;;2.33;0.70;;;20.30;55.00;;;;;;2361687;53;20936;-72
2022/06/13 04:54:34;;;;;;;1.83;0.70;;;20.20;55.00;;;;;;2356001;53;20996;-73
2022/06/13 04:57:01;;;;;;;3.78;0.88;;;20.20;55.20;;;;;;2355093;53;20909;-73
2022/06/13 04:59:27;;;;;;;3.10;0.73;;;20.10;54.80;;;;;;2349768;53;22143;-72
2022/06/13 05:01:54;;;;;;;2.70;0.77;;;20.10;54.80;;;;;;2359569;53;21355;-73
2022/06/13 05:04:26;;;;;;;1.80;0.73;;;20.00;54.80;;;;;;2343779;53;21882;-72
2022/06/13 05:06:53;;;;;;;2.85;0.70;;;20.00;54.90;;;;;;2343319;53;20960;-72
2022/06/13 05:09:23;;;;;;;3.08;0.70;;;20.00;54.90;;;;;;2360435;53;21000;-72
2022/06/13 05:13:22;;;;;;;2.35;0.80;;;20.00;55.10;;;;;;2343944;53;20964;-72
2022/06/13 05:16:06;;;;;;;3.50;0.80;;;19.90;55.10;;;;;;2345946;53;21004;-72
2022/06/13 05:25:43;;;;;;;1.52;0.70;;;19.90;54.90;;;;;;2441820;52;21035;-73
2022/06/13 05:28:10;;;;;;;4.00;0.80;;;19.80;54.80;;;;;;2348566;53;21046;-72
2022/06/13 05:30:40;;;;;;;3.25;0.60;;;19.70;54.50;;;;;;2385997;53;20956;-72
2022/06/13 05:33:06;;;;;;;2.15;0.82;;;19.70;55.50;;;;;;2344037;53;21462;-72
2022/06/13 05:35:33;;;;;;;2.03;0.80;;;19.60;55.00;;;;;;2343110;53;21303;-72
2022/06/13 05:38:00;;;;;;;3.72;0.70;;;19.60;55.10;;;;;;2343681;53;20981;-72
2022/06/13 05:40:26;;;;;;;1.95;0.70;;;19.60;55.20;;;;;;2371730;53;21014;-74
2022/06/13 05:42:54;;;;;;;2.70;1.02;;;19.60;55.30;;;;;;2371925;53;20926;-72
2022/06/13 05:45:24;;;;;;;2.83;0.80;;;19.60;55.40;;;;;;2371950;53;20985;-73
2022/06/13 05:47:52;;;;;;;2.33;0.80;;;19.60;55.50;;;;;;2358053;53;21001;-74
2022/06/13 05:50:20;;;;;;;2.22;0.77;;;19.60;55.50;;;;;;2362975;53;20974;-72
2022/06/13 05:52:47;;;;;;;2.70;0.90;;;19.60;55.40;;;;;;2371153;53;20939;-73
2022/06/13 05:55:13;;;;;;;2.95;0.90;;;19.60;55.30;;;;;;2371060;53;20930;-73
2022/06/13 05:57:57;;;;;;;3.08;0.80;;;19.70;55.40;;;;;;2582199;52;20942;-73
2022/06/13 06:00:28;;;;;;;4.03;1.08;;;19.70;55.30;;;;;;2371213;53;21497;-73
2022/06/13 06:03:01;;;;;;;3.22;1.08;;;19.70;55.30;;;;;;2415493;52;20921;-73
2022/06/13 06:05:28;;;;;;;2.87;0.90;;;19.70;55.30;;;;;;2355626;53;20962;-73
2022/06/13 06:07:54;;;;;;;2.75;0.90;;;19.70;55.10;;;;;;2586230;52;21017;-75
2022/06/13 06:10:23;;;;;;;2.50;1.10;;;19.70;55.10;;;;;;2351027;53;21003;-73
2022/06/13 06:12:51;;;;;;;3.00;0.90;;;19.70;55.10;;;;;;2370945;53;21014;-74
2022/06/13 06:15:18;;;;;;;3.15;0.85;;;19.70;55.10;;;;;;2365660;53;20967;-72
2022/06/13 06:17:45;;;;;;;3.78;1.02;;;19.70;55.00;;;;;;2355360;53;20951;-74
2022/06/13 06:20:15;;;;;;;3.72;1.30;;;19.70;55.00;;;;;;2371375;53;20969;-72
2022/06/13 06:22:41;;;;;;;4.80;1.02;;;19.80;55.00;;;;;;2371503;53;21026;-72
2022/06/13 06:25:08;;;;;;;4.07;1.15;;;19.80;54.80;;;;;;2371569;53;21376;-72
2022/06/13 06:27:34;;;;;;;4.28;1.00;;;19.80;54.80;;;;;;2418252;52;20966;-74
2022/06/13 06:30:05;;;;;;;3.85;1.02;;;19.80;54.80;;;;;;2372231;53;20974;-73
2022/06/13 06:32:31;;;;;;;2.95;1.10;;;19.80;54.70;;;;;;2384412;52;21013;-73
2022/06/13 06:34:57;;;;;;;3.53;1.00;;;19.80;54.60;;;;;;2371272;53;20942;-72
2022/06/13 06:37:24;;;;;;;4.82;1.10;;;19.80;54.50;;;;;;2371585;53;20950;-73
2022/06/13 06:39:50;;;;;;;2.85;0.93;;;19.80;54.50;;;;;;2371509;53;21317;-73
2022/06/13 06:42:17;;;;;;;3.25;0.90;;;19.90;54.60;;;;;;2384883;52;21070;-72
2022/06/13 06:44:49;;;;;;;3.97;1.20;;;19.90;54.60;;;;;;2350194;53;20946;-73
2022/06/13 06:47:16;;;;;;;3.12;1.30;;;19.90;54.60;;;;;;2575670;52;20988;-72
2022/06/13 06:49:42;;;;;;;4.35;1.10;;;19.90;54.60;;;;;;2370986;53;20950;-71
2022/06/13 06:52:09;;;;;;;8.82;1.67;;;19.90;54.60;;;;;;2403230;52;20994;-72
2022/06/13 07:00:08;;;;;;;3.10;1.20;;;20.00;54.40;;;;;;2371225;53;21557;-72
2022/06/13 07:02:34;;;;;;;4.05;1.20;;;20.10;54.40;;;;;;2368782;53;22119;-72
2022/06/13 07:05:02;;;;;;;3.33;1.23;;;20.10;54.40;;;;;;2370292;53;20954;-72
2022/06/13 07:07:31;;;;;;;2.78;1.40;;;20.10;54.40;;;;;;2370989;53;20973;-72
2022/06/13 07:09:57;;;;;;;3.60;1.12;;;20.20;54.40;;;;;;2370985;53;21034;-71
2022/06/13 07:12:24;;;;;;;3.40;1.30;;;20.20;54.40;;;;;;2352862;53;21014;-71
2022/06/13 07:14:50;;;;;;;4.45;1.35;;;20.20;54.30;;;;;;2617548;52;20993;-71
2022/06/13 07:17:17;;;;;;;4.95;1.20;;;20.30;54.40;;;;;;2370840;53;21002;-74
2022/06/13 07:19:44;;;;;;;3.15;1.20;;;20.30;54.40;;;;;;2370702;53;20950;-72
2022/06/13 07:22:13;;;;;;;4.37;1.27;;;20.40;54.60;;;;;;2425179;52;20970;-73
2022/06/13 07:24:39;;;;;;;3.97;1.23;;;20.50;54.60;;;;;;2335326;54;21554;-72
2022/06/13 07:27:10;;;;;;;4.82;1.10;;;20.50;54.40;;;;;;2354677;53;21078;-73
2022/06/13 07:29:36;;;;;;;4.53;1.23;;;20.50;54.30;;;;;;2565551;52;21011;-72
2022/06/13 07:32:12;;;;;;;4.35;1.42;;;20.60;54.40;;;;;;2367956;53;21460;-72
2022/06/13 07:34:38;;;;;;;3.72;1.12;;;20.60;54.50;;;;;;2371092;53;21416;-73
2022/06/13 07:37:08;;;;;;;3.37;1.30;;;20.70;54.30;;;;;;2370707;53;20959;-73
2022/06/13 07:39:34;;;;;;;3.55;1.20;;;20.70;54.20;;;;;;2353515;53;20915;-72
2022/06/13 07:42:11;;;;;;;2.83;0.98;;;20.80;54.30;;;;;;2349270;53;20998;-72
2022/06/13 07:44:39;;;;;;;3.62;1.27;;;20.80;54.20;;;;;;2353444;53;21585;-71
2022/06/13 07:47:06;;;;;;;4.57;1.23;;;20.80;54.00;;;;;;2369454;53;20989;-72
2022/06/13 07:49:34;;;;;;;3.65;1.48;;;20.90;54.10;;;;;;2370402;53;21010;-72
2022/06/13 07:52:02;;;;;;;4.97;1.30;;;20.90;54.10;;;;;;2371286;53;20982;-73
2022/06/13 07:54:31;;;;;;;3.00;1.20;;;21.00;54.00;;;;;;2361494;53;20970;-74
2022/06/13 07:56:57;;;;;;;3.55;1.20;;;21.10;53.90;;;;;;2347431;53;20977;-73
2022/06/13 07:59:26;;;;;;;3.87;1.15;;;21.10;54.00;;;;;;2604551;52;21795;-72
2022/06/13 08:01:53;;;;;;;5.82;1.27;;;21.10;54.10;;;;;;2462943;52;21081;-72
2022/06/13 08:04:19;;;;;;;6.82;1.58;;;21.20;54.10;;;;;;2596783;52;21035;-72
2022/06/13 08:06:46;;;;;;;4.50;1.40;;;21.30;54.10;;;;;;2376428;53;21715;-73
2022/06/13 08:09:12;;;;;;;3.78;1.00;;;21.30;53.90;;;;;;2424889;52;20939;-72
2022/06/13 08:11:46;;;;;;;4.25;1.50;;;21.30;53.90;;;;;;2349131;53;20980;-72
2022/06/13 08:14:12;;;;;;;3.50;1.37;;;21.40;53.90;;;;;;2443778;52;20974;-73
2022/06/13 08:16:42;;;;;;;3.30;1.35;;;21.50;54.00;;;;;;2546010;52;20978;-72
2022/06/13 08:19:10;;;;;;;4.28;1.50;;;21.50;53.90;;;;;;2358908;53;20971;-73
2022/06/13 08:21:37;;;;;;;4.00;1.50;;;21.60;53.80;;;;;;2379795;53;20935;-72
2022/06/13 08:24:04;;;;;;;2.78;1.20;;;21.60;53.80;;;;;;2370303;53;21010;-72
2022/06/13 08:26:34;;;;;;;5.35;1.40;;;21.70;53.70;;;;;;2597264;52;21546;-72
2022/06/13 08:29:01;;;;;;;3.83;1.40;;;21.70;53.70;;;;;;2366445;53;21065;-71
2022/06/13 08:31:27;;;;;;;3.08;1.37;;;21.80;53.70;;;;;;2372491;53;20974;-72
2022/06/13 08:33:54;;;;;;;4.72;1.67;;;21.80;53.70;;;;;;2371286;53;20985;-73
2022/06/13 08:36:21;;;;;;;2.85;1.20;;;21.80;53.60;;;;;;2379795;52;21801;-73
2022/06/13 08:38:47;;;;;;;3.03;1.17;;;21.90;53.60;;;;;;2360195;53;21034;-74
2022/06/13 08:41:42;;;;;;;4.62;1.50;;;21.90;53.30;;;;;;2353687;53;20984;-73
2022/06/13 08:47:34;;;;;;;5.00;1.48;;;22.00;53.10;;;;;;2371404;53;20922;-74
2022/06/13 08:51:43;;;;;;;5.45;1.17;;;22.10;52.90;;;;;;2437102;53;21061;-73
2022/06/13 08:54:12;;;;;;;3.85;1.08;;;22.20;52.80;;;;;;2343707;53;20917;-75
2022/06/13 08:56:38;;;;;;;6.65;1.12;;;22.30;52.80;;;;;;2342945;53;21332;-72
2022/06/13 08:59:27;;;;;;;4.97;1.20;;;22.30;52.80;;;;;;2590213;52;20992;-74
2022/06/13 09:02:02;;;;;;;3.95;1.37;;;22.40;52.70;;;;;;2360020;53;21009;-73
2022/06/13 09:05:14;;;;;;;4.25;1.10;;;22.40;52.70;;;;;;2356577;53;21594;-73
2022/06/13 09:07:53;;;;;;;;;;;22.50;52.00;;;;;;2368054;53;20941;-73
2022/06/13 09:10:37;;;;;;;4.97;1.12;;;22.50;51.90;;;;;;2611417;52;20070;-74
2022/06/13 09:13:28;;;;;;;4.30;1.25;;;22.60;51.50;;;;;;2351753;53;21491;-74
2022/06/13 09:16:06;;;;;;;3.42;1.25;;;22.60;51.50;;;;;;2351521;53;20942;-73
2022/06/13 09:20:00;;;;;;;3.90;1.05;;;22.70;51.60;;;;;;2338676;53;20992;-73
2022/06/13 09:24:24;;;;;;;2.33;0.70;;;22.70;51.50;;;;;;2343798;53;21410;-73
2022/06/13 09:27:04;;;;;;;3.22;0.85;;;22.80;51.20;;;;;;2342880;53;20924;-75
2022/06/13 09:30:00;;;;;;;2.65;0.88;;;22.90;50.90;;;;;;2385561;52;20940;-73
2022/06/13 09:33:06;;;;;;;3.28;1.12;;;23.00;50.30;;;;;;2379717;52;21080;-73
2022/06/13 09:35:34;;;;;;;3.25;1.25;;;23.00;50.30;;;;;;2342539;53;20968;-73
2022/06/13 09:38:24;;;;;;;5.93;1.30;;;23.00;50.20;;;;;;2334447;53;20976;-73
2022/06/13 09:42:52;;;;;;;3.45;0.90;;;23.10;49.40;;;;;;2347118;53;21004;-73
2022/06/13 09:45:52;;;;;;;4.45;0.75;;;23.10;49.40;;;;;;2343331;53;20956;-72
2022/06/13 09:52:50;;;;;;;1.85;0.70;;;23.20;48.70;;;;;;2345830;53;21009;-73
2022/06/13 09:55:23;;;;;;;2.50;0.57;;;23.20;48.40;;;;;;2349920;53;21038;-73
2022/06/13 10:04:56;;;;;;;2.05;0.57;;;23.30;48.90;;;;;;2541901;53;21003;-70
2022/06/13 10:09:42;;;;;;;1.50;0.50;;;23.40;48.40;;;;;;2347292;53;20977;-72
2022/06/13 10:13:52;;;;;;;1.45;0.50;;;23.50;47.50;;;;;;2343646;53;21007;-72
2022/06/13 10:16:41;;;;;;;3.53;0.85;;;23.50;47.10;;;;;;2343203;53;21053;-71
2022/06/13 10:21:43;;;;;;;1.95;0.75;;;23.50;46.50;;;;;;2345805;53;21689;-74
2022/06/13 10:24:30;;;;;;;1.50;0.55;;;23.60;46.90;;;;;;2345230;53;21006;-72
2022/06/13 10:27:14;;;;;;;2.72;0.88;;;23.70;46.50;;;;;;2342976;53;20981;-74
2022/06/13 10:35:59;;;;;;;2.58;0.73;;;23.70;46.80;;;;;;2344703;53;20996;-71
2022/06/13 10:39:12;;;;;;;1.10;0.40;;;23.80;46.90;;;;;;2412901;52;20919;-71
2022/06/13 10:41:40;;;;;;;1.75;0.70;;;23.90;46.00;;;;;;2422398;52;21403;-72
2022/06/13 10:44:07;;;;;;;3.53;0.70;;;24.00;46.80;;;;;;2509252;52;21488;-72
2022/06/13 10:46:34;;;;;;;2.60;0.80;;;24.00;46.70;;;;;;2388368;53;21580;-72
2022/06/13 10:49:53;;;;;;;3.45;0.98;;;24.00;46.50;;;;;;2474896;52;21790;-71
2022/06/13 10:52:23;;;;;;;2.30;0.73;;;24.10;45.70;;;;;;2358446;53;20946;-74
2022/06/13 10:54:53;;;;;;;2.53;0.85;;;24.20;46.20;;;;;;2360127;53;21026;-74
2022/06/13 10:57:37;;;;;;;1.70;0.65;;;24.20;46.10;;;;;;2348001;53;20972;-71
2022/06/13 11:00:29;;;;;;;2.37;0.90;;;24.20;45.60;;;;;;2341001;54;20950;-74
2022/06/13 11:03:17;;;;;;;2.28;0.70;;;24.30;45.70;;;;;;2372264;53;20982;-73
2022/06/13 11:06:04;;;;;;;2.78;1.00;;;24.40;45.70;;;;;;2370491;53;20926;-71
2022/06/13 11:08:31;;;;;;;2.10;0.82;;;24.40;45.20;;;;;;2373369;52;21467;-72
2022/06/13 11:11:05;;;;;;;3.00;1.00;;;24.50;46.00;;;;;;2364241;53;20974;-74
2022/06/13 11:13:36;;;;;;;3.83;0.95;;;24.50;46.80;;;;;;2346489;53;21000;-71
2022/06/13 11:22:45;;;;;;;2.42;0.85;;;24.70;46.00;;;;;;2360660;53;21030;-76
2022/06/13 11:25:25;;;;;;;3.83;0.88;;;24.80;45.40;;;;;;2358965;53;20977;-74
2022/06/13 11:28:52;;;;;;;2.05;0.73;;;24.90;45.10;;;;;;2346923;53;21062;-72
2022/06/13 11:31:20;;;;;;;1.85;0.60;;;24.90;45.10;;;;;;2387520;52;20983;-73
2022/06/13 11:33:49;;;;;;;3.65;1.02;;;25.00;45.30;;;;;;2359497;54;21039;-73
2022/06/13 11:36:27;;;;;;;2.25;0.80;;;25.00;45.10;;;;;;2379350;53;21007;-75
2022/06/13 11:39:04;;;;;;;2.60;0.82;;;25.10;44.50;;;;;;2495874;53;20954;-73
2022/06/13 11:41:43;;;;;;;2.42;0.93;;;25.10;44.10;;;;;;2366522;53;21017;-73
2022/06/13 11:44:19;;;;;;;2.62;0.73;;;25.10;43.90;;;;;;2401076;52;20906;-74
2022/06/13 11:46:58;;;;;;;2.05;0.82;;;25.10;44.10;;;;;;2363097;53;20919;-72
2022/06/13 11:49:41;;;;;;;1.80;0.80;;;25.20;44.20;;;;;;2371142;53;20907;-73
2022/06/13 11:55:20;;;;;;;2.20;0.60;;;25.20;44.10;;;;;;2373487;53;21009;-72
2022/06/13 11:57:53;;;;;;;2.30;0.77;;;25.30;44.80;;;;;;2366371;53;21005;-71
2022/06/13 12:00:26;;;;;;;2.90;0.85;;;25.30;44.90;;;;;;2326143;54;20997;-72
2022/06/13 12:03:05;;;;;;;2.22;0.93;;;25.40;44.80;;;;;;2341514;53;21323;-75
2022/06/13 12:05:36;;;;;;;4.60;1.33;;;25.40;44.80;;;;;;2332011;53;21008;-74
2022/06/13 12:08:19;;;;;;;2.28;0.70;;;25.50;44.60;;;;;;2362083;53;21005;-76
2022/06/13 12:11:55;;;;;;;2.00;0.62;;;25.60;43.80;;;;;;2382002;52;21004;-76
2022/06/13 12:14:24;;;;;;;3.28;0.80;;;25.70;43.60;;;;;;2359224;52;21011;-75
2022/06/13 12:17:38;;;;;;;3.08;0.70;;;25.70;43.80;;;;;;2340953;53;22016;-72
2022/06/13 12:20:34;;;;;;;1.80;0.55;;;25.80;43.00;;;;;;2341916;53;21403;-75
2022/06/13 12:23:03;;;;;;;1.85;0.65;;;25.80;43.10;;;;;;2343325;53;20940;-75
2022/06/13 12:25:46;;;;;;;2.08;0.60;;;25.90;43.60;;;;;;2564186;52;21002;-77
2022/06/13 12:28:16;;;;;;;1.80;0.70;;;26.00;43.20;;;;;;2344270;53;21073;-73
2022/06/13 12:30:52;;;;;;;1.90;0.62;;;26.00;43.30;;;;;;2424810;52;21281;-75
2022/06/13 12:35:34;;;;;;;3.83;1.17;;;26.10;43.20;;;;;;2360425;53;20994;-74
2022/06/13 12:38:26;;;;;;;4.15;0.73;;;26.20;42.80;;;;;;2361471;53;21318;-77
2022/06/13 12:41:52;;;;;;;1.90;0.63;;;26.30;42.90;;;;;;2358877;53;22022;-75
2022/06/13 12:48:07;;;;;;;3.28;0.70;;;26.40;42.80;;;;;;2338042;54;21275;-79
2022/06/13 12:56:42;;;;;;;1.35;0.45;;;26.40;41.80;;;;;;2359596;53;20946;-74
2022/06/13 13:06:06;;;;;;;2.30;0.60;;;26.60;42.30;;;;;;2359662;53;21944;-76
2022/06/13 13:10:11;;;;;;;3.10;0.90;;;26.60;42.00;;;;;;2360764;53;21365;-74
2022/06/13 13:13:07;;;;;;;1.65;0.45;;;26.70;42.10;;;;;;2358102;53;20966;-79
2022/06/13 13:15:56;;;;;;;2.10;0.73;;;26.70;41.60;;;;;;2358892;53;20942;-76
2022/06/13 13:20:05;;;;;;;2.40;0.70;;;26.70;41.20;;;;;;2357453;53;20951;-75
2022/06/13 13:24:27;;;;;;;1.30;0.55;;;26.80;41.20;;;;;;2361000;53;20981;-76
2022/06/13 13:27:20;;;;;;;1.85;0.70;;;26.80;41.10;;;;;;2360722;53;20949;-76
2022/06/13 13:30:13;;;;;;;1.83;0.60;;;26.90;40.90;;;;;;2348888;53;20955;-79
2022/06/13 13:33:12;;;;;;;2.00;0.70;;;26.90;40.70;;;;;;2358804;53;21057;-74
2022/06/13 13:35:52;;;;;;;1.87;0.62;;;27.00;41.10;;;;;;2357502;53;21032;-74
2022/06/13 13:38:30;;;;;;;2.15;0.88;;;27.00;41.30;;;;;;2359552;53;20954;-74
2022/06/13 13:41:01;;;;;;;2.00;0.77;;;27.10;41.20;;;;;;2361561;53;20939;-73
2022/06/13 13:43:43;;;;;;;2.30;0.90;;;27.10;40.90;;;;;;2359793;52;20963;-75
2022/06/13 13:46:23;;;;;;;1.83;0.68;;;27.20;40.90;;;;;;2362221;53;21498;-72
2022/06/13 13:48:59;;;;;;;2.25;0.80;;;27.20;40.80;;;;;;2347684;53;22148;-75
2022/06/13 13:51:46;;;;;;;2.70;0.77;;;27.30;40.60;;;;;;2359050;53;20975;-74
2022/06/13 13:55:02;;;;;;;2.00;0.80;;;27.30;40.30;;;;;;2344125;53;20982;-73
2022/06/13 13:57:44;;;;;;;2.25;0.70;;;27.40;40.00;;;;;;2359716;53;21286;-72
2022/06/13 14:00:20;;;;;;;2.62;0.80;;;27.40;39.90;;;;;;2332641;53;21060;-75
2022/06/13 14:03:19;;;;;;;2.22;0.70;;;27.50;39.60;;;;;;2334972;53;20905;-74
2022/06/13 14:06:03;;;;;;;2.70;0.80;;;27.50;38.90;;;;;;2332365;53;20924;-73
2022/06/13 14:08:30;;;;;;;2.28;0.80;;;27.50;38.80;;;;;;2335559;52;21283;-74
2022/06/13 14:10:57;;;;;;;1.98;0.60;;;27.50;39.30;;;;;;2575272;52;20924;-75
2022/06/13 14:13:37;;;;;;;1.85;0.80;;;27.60;39.30;;;;;;2346536;53;20932;-75
2022/06/13 14:17:13;;;;;;;2.70;0.60;;;27.60;38.40;;;;;;2348016;53;21064;-74
2022/06/13 14:19:40;;;;;;;1.33;0.60;;;27.60;38.10;;;;;;2333766;53;20952;-75
2022/06/13 14:22:17;;;;;;;1.73;0.50;;;27.60;38.80;;;;;;2350566;53;21601;-76
2022/06/13 14:25:02;;;;;;;2.00;0.62;;;27.70;38.70;;;;;;2331548;53;20975;-75
2022/06/13 14:27:29;;;;;;;1.73;0.57;;;27.70;38.90;;;;;;2347466;53;21008;-75
2022/06/13 14:33:03;;;;;;;2.08;0.80;;;27.80;38.30;;;;;;2365013;53;21306;-75
2022/06/13 14:35:48;;;;;;;1.25;0.50;;;27.80;38.50;;;;;;2358306;53;20993;-75
2022/06/13 14:38:21;;;;;;;1.27;0.50;;;27.80;37.80;;;;;;2361061;53;20936;-75
2022/06/13 14:40:57;;;;;;;2.00;0.70;;;27.80;37.90;;;;;;2358055;53;20934;-78
2022/06/13 14:43:42;;;;;;;3.08;0.55;;;27.80;37.20;;;;;;2358769;53;21025;-77
2022/06/13 14:49:47;;;;;;;2.20;0.70;;;27.90;36.90;;;;;;2360033;53;21528;-77
2022/06/13 14:52:30;;;;;;;3.17;0.65;;;27.90;37.40;;;;;;2403315;52;20918;-73
2022/06/13 14:55:30;;;;;;;1.98;0.62;;;27.90;36.70;;;;;;2448465;52;20931;-80
2022/06/13 14:57:56;;;;;;;1.87;0.52;;;27.90;36.60;;;;;;2364545;53;21870;-75
2022/06/13 15:00:27;;;;;;;2.12;0.70;;;27.80;37.00;;;;;;2374596;52;20949;-74
2022/06/13 15:03:04;;;;;;;2.75;0.80;;;27.80;36.30;;;;;;2533922;52;20891;-76
2022/06/13 15:05:48;;;;;;;2.45;1.00;;;27.80;35.90;;;;;;2357748;53;21081;-74
2022/06/13 15:09:49;;;;;;;1.30;0.50;;;27.80;35.80;;;;;;2389146;52;20939;-75
2022/06/13 15:12:21;;;;;;;1.62;0.52;;;27.70;36.20;;;;;;2360930;53;21258;-76
2022/06/13 15:14:53;;;;;;;2.33;0.52;;;27.70;36.10;;;;;;2346348;53;22072;-75
2022/06/13 15:17:19;;;;;;;2.07;0.70;;;27.70;36.10;;;;;;2349074;53;20921;-75
2022/06/13 15:19:48;;;;;;;1.48;0.50;;;27.70;36.20;;;;;;2395532;52;21684;-74
2022/06/13 15:22:20;;;;;;;2.47;0.80;;;27.70;36.00;;;;;;2355371;53;20935;-74
2022/06/13 15:24:48;;;;;;;;;;;27.60;35.60;;;;;;2357102;53;21005;-78
2022/06/13 15:27:14;;;;;;;1.17;0.50;;;27.70;35.90;;;;;;2380167;52;20147;-74
2022/06/13 15:29:40;;;;;;;3.83;0.60;;;27.60;35.90;;;;;;2361203;53;21005;-73
2022/06/13 15:32:29;;;;;;;2.15;0.80;;;27.60;35.60;;;;;;2351970;54;20946;-73
2022/06/13 15:35:13;;;;;;;1.85;0.60;;;27.60;35.00;;;;;;2391335;52;21017;-77